createdAt,value
2019-05-25T00:00:43.088Z,16.90
2019-05-25T00:03:20.630Z,16.90
2019-05-25T00:06:05.222Z,16.80
2019-05-25T00:08:44.114Z,16.70
2019-05-25T00:11:37.452Z,16.70
2019-05-25T00:14:16.665Z,16.70
2019-05-25T00:17:07.724Z,16.60
2019-05-25T00:19:48.524Z,16.60
2019-05-25T00:22:27.542Z,16.60
2019-05-25T00:25:07.304Z,16.60
2019-05-25T00:28:07.630Z,16.60
2019-05-25T00:30:48.812Z,16.60
2019-05-25T00:33:30.451Z,16.60
2019-05-25T00:36:14.354Z,16.60
2019-05-25T00:39:02.440Z,16.60
2019-05-25T00:41:42.685Z,16.60
2019-05-25T00:44:25.513Z,16.50
2019-05-25T00:47:05.940Z,16.50
2019-05-25T00:49:45.931Z,16.50
2019-05-25T00:52:23.437Z,16.50
2019-05-25T00:55:00.995Z,16.50
2019-05-25T00:57:38.594Z,16.50
2019-05-25T01:00:16.223Z,16.50
2019-05-25T01:02:53.838Z,16.50
2019-05-25T01:05:31.825Z,16.50
2019-05-25T01:08:09.330Z,16.50
2019-05-25T01:10:46.916Z,16.50
2019-05-25T01:13:32.838Z,16.50
2019-05-25T01:16:25.602Z,16.40
2019-05-25T01:19:06.376Z,16.40
2019-05-25T01:21:54.451Z,16.30
2019-05-25T01:24:44.245Z,16.40
2019-05-25T01:27:32.964Z,16.30
2019-05-25T01:30:19.006Z,16.30
2019-05-25T01:36:12.361Z,16.20
2019-05-25T01:38:55.572Z,16.20
2019-05-25T01:41:43.230Z,16.20
2019-05-25T01:44:27.234Z,16.20
2019-05-25T01:47:12.155Z,16.20
2019-05-25T01:49:53.465Z,16.20
2019-05-25T01:52:30.945Z,16.20
2019-05-25T01:55:08.586Z,16.10
2019-05-25T01:57:46.132Z,16.10
2019-05-25T02:00:23.686Z,16.10
2019-05-25T02:03:01.328Z,16.00
2019-05-25T02:05:39.017Z,16.00
2019-05-25T02:08:16.617Z,15.90
2019-05-25T02:10:54.172Z,15.80
2019-05-25T02:13:31.718Z,15.80
2019-05-25T02:16:09.261Z,15.80
2019-05-25T02:19:00.664Z,15.70
2019-05-25T02:22:13.376Z,15.70
2019-05-25T02:24:52.089Z,15.70
2019-05-25T02:27:54.346Z,15.60
2019-05-25T02:30:38.501Z,15.50
2019-05-25T02:33:35.143Z,15.40
2019-05-25T02:36:29.912Z,15.20
2019-05-25T02:39:25.064Z,15.10
2019-05-25T02:42:28.230Z,14.90
2019-05-25T02:45:14.133Z,14.80
2019-05-25T02:47:59.896Z,14.80
2019-05-25T02:50:46.739Z,14.90
2019-05-25T02:53:32.729Z,15.00
2019-05-25T02:56:13.994Z,15.00
2019-05-25T02:58:50.718Z,15.10
2019-05-25T03:01:28.224Z,15.10
2019-05-25T03:04:05.837Z,15.10
2019-05-25T03:06:43.493Z,15.10
2019-05-25T03:09:21.123Z,15.00
2019-05-25T03:11:58.829Z,15.00
2019-05-25T03:14:36.321Z,14.90
2019-05-25T03:17:13.987Z,14.90
2019-05-25T03:19:51.571Z,14.80
2019-05-25T03:22:33.953Z,14.80
2019-05-25T03:25:15.124Z,14.80
2019-05-25T03:27:54.383Z,14.80
2019-05-25T03:30:37.977Z,14.80
2019-05-25T03:33:27.747Z,14.80
2019-05-25T03:36:11.372Z,14.70
2019-05-25T03:38:55.808Z,14.70
2019-05-25T03:41:34.838Z,14.60
2019-05-25T03:44:34.285Z,14.60
2019-05-25T03:47:35.435Z,14.50
2019-05-25T03:50:17.489Z,14.50
2019-05-25T03:53:14.890Z,14.50
2019-05-25T03:56:05.687Z,14.50
2019-05-25T03:58:48.742Z,14.50
2019-05-25T04:01:26.144Z,14.50
2019-05-25T04:04:06.380Z,14.40
2019-05-25T04:06:43.927Z,14.40
2019-05-25T04:09:21.501Z,14.30
2019-05-25T04:11:59.027Z,14.20
2019-05-25T04:14:36.608Z,14.20
2019-05-25T04:17:14.217Z,14.10
2019-05-25T04:19:51.855Z,14.00
2019-05-25T04:22:29.370Z,13.90
2019-05-25T04:25:08.523Z,13.90
2019-05-25T04:28:04.514Z,13.90
2019-05-25T04:30:47.505Z,13.90
2019-05-25T04:33:26.939Z,13.90
2019-05-25T04:36:36.653Z,13.90
2019-05-25T04:39:26.504Z,13.90
2019-05-25T04:42:01.960Z,13.90
2019-05-25T04:44:46.348Z,14.00
2019-05-25T04:47:27.425Z,14.10
2019-05-25T04:50:18.953Z,14.10
2019-05-25T04:53:04.560Z,14.10
2019-05-25T04:55:46.391Z,14.10
2019-05-25T04:58:30.068Z,14.10
2019-05-25T05:01:07.516Z,14.00
2019-05-25T05:03:46.892Z,14.00
2019-05-25T05:06:29.258Z,14.00
2019-05-25T05:09:09.444Z,14.00
2019-05-25T05:11:46.983Z,14.00
2019-05-25T05:14:24.688Z,14.00
2019-05-25T05:17:02.280Z,14.10
2019-05-25T05:19:39.888Z,14.10
2019-05-25T05:22:17.409Z,14.10
2019-05-25T05:24:54.994Z,14.20
2019-05-25T05:27:33.701Z,14.30
2019-05-25T05:30:26.352Z,14.40
2019-05-25T05:33:13.276Z,14.60
2019-05-25T05:35:54.721Z,14.70
2019-05-25T05:38:43.424Z,14.90
2019-05-25T05:41:21.576Z,15.00
2019-05-25T05:44:05.625Z,15.00
2019-05-25T05:46:45.735Z,14.90
2019-05-25T05:49:27.980Z,14.80
2019-05-25T05:52:13.223Z,14.60
2019-05-25T05:54:59.130Z,14.60
2019-05-25T05:57:42.726Z,14.40
2019-05-25T06:00:23.669Z,14.30
2019-05-25T06:03:09.196Z,14.30
2019-05-25T06:05:47.305Z,14.20
2019-05-25T06:08:26.247Z,14.20
2019-05-25T06:11:03.715Z,14.20
2019-05-25T06:13:47.820Z,14.30
2019-05-25T06:16:23.765Z,14.30
2019-05-25T06:19:01.292Z,14.40
2019-05-25T06:21:38.970Z,14.60
2019-05-25T06:24:16.544Z,14.80
2019-05-25T06:27:02.262Z,14.90
2019-05-25T06:29:51.360Z,15.00
2019-05-25T06:32:30.289Z,15.10
2019-05-25T06:35:22.587Z,15.10
2019-05-25T06:38:04.080Z,15.20
2019-05-25T06:40:54.273Z,15.20
2019-05-25T06:43:37.505Z,15.20
2019-05-25T06:46:19.533Z,15.20
2019-05-25T06:49:07.205Z,15.30
2019-05-25T06:52:13.852Z,15.30
2019-05-25T06:55:06.601Z,15.30
2019-05-25T06:57:57.135Z,15.40
2019-05-25T07:00:45.575Z,15.50
2019-05-25T07:03:40.739Z,15.60
2019-05-25T07:06:23.603Z,15.80
2019-05-25T07:09:05.817Z,16.20
2019-05-25T07:11:47.554Z,16.60
2019-05-25T07:14:34.208Z,16.90
2019-05-25T07:17:11.710Z,16.90
2019-05-25T07:19:55.361Z,16.80
2019-05-25T07:22:41.760Z,16.80
2019-05-25T07:25:27.782Z,16.90
2019-05-25T07:28:10.300Z,16.90
2019-05-25T07:31:04.650Z,16.90
2019-05-25T07:33:49.198Z,16.90
2019-05-25T07:36:32.449Z,16.90
2019-05-25T07:39:12.960Z,16.80
2019-05-25T07:41:56.348Z,16.80
2019-05-25T07:44:42.209Z,16.90
2019-05-25T07:47:31.912Z,17.00
2019-05-25T07:50:13.271Z,17.10
2019-05-25T07:53:02.834Z,17.00
2019-05-25T07:55:47.609Z,17.10
2019-05-25T07:58:25.521Z,17.20
2019-05-25T08:01:07.997Z,17.40
2019-05-25T08:03:51.412Z,17.70
2019-05-25T08:06:30.703Z,18.10
2019-05-25T08:09:10.530Z,18.40
2019-05-25T08:11:49.014Z,18.70
2019-05-25T08:14:30.089Z,19.00
2019-05-25T08:17:12.707Z,19.30
2019-05-25T08:19:53.384Z,19.50
2019-05-25T08:22:39.097Z,19.60
2019-05-25T08:25:20.413Z,19.80
2019-05-25T08:28:00.908Z,19.80
2019-05-25T08:30:43.927Z,19.70
2019-05-25T08:33:23.726Z,19.50
2019-05-25T08:36:06.988Z,19.60
2019-05-25T08:38:47.021Z,19.90
2019-05-25T08:41:30.367Z,20.10
2019-05-25T08:44:16.912Z,20.40
2019-05-25T08:46:55.528Z,20.70
2019-05-25T08:49:37.378Z,20.90
2019-05-25T08:52:26.866Z,21.00
2019-05-25T08:55:07.063Z,20.90
2019-05-25T08:57:49.958Z,20.80
2019-05-25T09:00:29.758Z,20.60
2019-05-25T09:03:12.455Z,20.30
2019-05-25T09:05:52.091Z,19.90
2019-05-25T09:08:34.271Z,19.60
2019-05-25T09:11:13.870Z,19.40
2019-05-25T09:13:52.371Z,19.00
2019-05-25T09:16:32.444Z,18.70
2019-05-25T09:19:12.415Z,18.70
2019-05-25T09:22:02.496Z,18.60
2019-05-25T09:24:43.606Z,18.60
2019-05-25T09:27:26.779Z,18.80
2019-05-25T09:30:08.518Z,19.20
2019-05-25T09:33:02.990Z,19.60
2019-05-25T09:35:43.518Z,19.80
2019-05-25T09:38:26.351Z,19.90
2019-05-25T09:41:17.702Z,20.20
2019-05-25T09:43:55.389Z,20.70
2019-05-25T09:46:45.346Z,20.90
2019-05-25T09:49:38.205Z,20.90
2019-05-25T09:52:17.588Z,20.70
2019-05-25T09:55:00.989Z,20.70
2019-05-25T09:57:42.066Z,21.00
2019-05-25T10:00:19.224Z,21.20
2019-05-25T10:02:56.756Z,21.20
2019-05-25T10:05:35.741Z,21.30
2019-05-25T10:08:14.747Z,21.40
2019-05-25T10:10:52.253Z,21.50
2019-05-25T10:13:36.279Z,21.90
2019-05-25T10:16:18.275Z,22.50
2019-05-25T10:19:03.363Z,22.60
2019-05-25T10:21:43.090Z,22.60
2019-05-25T10:24:27.660Z,22.60
2019-05-25T10:27:11.320Z,22.80
2019-05-25T10:29:59.292Z,22.90
2019-05-25T10:32:38.549Z,23.20
2019-05-25T10:35:19.177Z,23.40
2019-05-25T10:37:58.754Z,23.50
2019-05-25T10:40:43.731Z,23.70
2019-05-25T10:43:24.497Z,23.60
2019-05-25T10:46:01.691Z,23.50
2019-05-25T10:48:49.530Z,23.70
2019-05-25T10:51:26.976Z,24.20
2019-05-25T10:54:10.168Z,24.70
2019-05-25T10:56:50.812Z,24.80
2019-05-25T10:59:51.865Z,24.90
2019-05-25T11:02:23.047Z,25.50
2019-05-25T11:05:00.684Z,25.70
2019-05-25T11:07:39.557Z,25.80
2019-05-25T11:10:21.868Z,26.10
2019-05-25T11:13:00.723Z,26.00
2019-05-25T11:15:42.563Z,25.60
2019-05-25T11:18:24.967Z,25.20
2019-05-25T11:21:11.585Z,24.90
2019-05-25T11:24:02.761Z,24.50
2019-05-25T11:26:51.233Z,24.40
2019-05-25T11:29:33.048Z,24.30
2019-05-25T11:32:17.846Z,24.00
2019-05-25T11:35:00.262Z,23.90
2019-05-25T11:37:40.992Z,23.90
2019-05-25T11:40:30.400Z,24.70
2019-05-25T11:43:11.652Z,25.20
2019-05-25T11:45:54.788Z,25.50
2019-05-25T11:48:38.485Z,25.50
2019-05-25T11:51:16.796Z,25.50
2019-05-25T11:53:54.229Z,25.50
2019-05-25T11:56:31.721Z,25.80
2019-05-25T11:59:09.177Z,25.80
2019-05-25T12:01:46.722Z,25.80
2019-05-25T12:04:24.317Z,26.00
2019-05-25T12:07:01.838Z,26.70
2019-05-25T12:09:39.351Z,27.10
2019-05-25T12:12:18.207Z,27.70
2019-05-25T12:14:57.112Z,28.00
2019-05-25T12:17:41.152Z,28.50
2019-05-25T12:20:34.901Z,28.80
2019-05-25T12:23:24.690Z,28.00
2019-05-25T12:26:06.961Z,27.40
2019-05-25T12:28:57.308Z,27.40
2019-05-25T12:31:38.904Z,29.10
2019-05-25T12:34:24.194Z,30.30
2019-05-25T12:37:07.684Z,30.70
2019-05-25T12:39:47.558Z,31.70
2019-05-25T12:42:40.049Z,31.70
2019-05-25T12:45:18.679Z,32.80
2019-05-25T12:48:05.963Z,33.50
2019-05-25T12:50:57.724Z,33.10
2019-05-25T12:53:36.416Z,32.60
2019-05-25T12:56:14.187Z,35.20
2019-05-25T12:58:51.679Z,36.90
2019-05-25T13:01:29.220Z,36.30
2019-05-25T13:04:06.712Z,37.00
2019-05-25T13:06:45.675Z,38.40
2019-05-25T13:09:30.356Z,40.20
2019-05-25T13:12:10.152Z,41.70
2019-05-25T13:14:56.132Z,41.20
2019-05-25T13:17:38.691Z,39.00
2019-05-25T13:20:22.968Z,37.80
2019-05-25T13:23:05.407Z,38.50
2019-05-25T13:25:43.481Z,39.70
2019-05-25T13:28:35.427Z,39.80
2019-05-25T13:31:17.455Z,38.60
2019-05-25T13:33:56.403Z,37.50
2019-05-25T13:39:41.938Z,38.20
2019-05-25T13:42:20.935Z,39.40
2019-05-25T13:45:04.431Z,39.10
2019-05-25T13:47:42.554Z,39.20
2019-05-25T13:50:19.993Z,39.60
2019-05-25T13:52:57.539Z,39.30
2019-05-25T13:55:35.100Z,38.60
2019-05-25T13:58:12.612Z,37.60
2019-05-25T14:00:50.141Z,37.00
2019-05-25T14:03:27.747Z,37.50
2019-05-25T14:06:05.279Z,37.90
2019-05-25T14:08:42.872Z,37.60
2019-05-25T14:11:20.453Z,36.20
2019-05-25T14:13:57.962Z,34.40
2019-05-25T14:16:36.854Z,32.80
2019-05-25T14:19:18.109Z,32.80
2019-05-25T14:22:01.012Z,34.70
2019-05-25T14:24:49.846Z,36.50
2019-05-25T14:27:22.507Z,36.80
2019-05-25T14:30:06.949Z,36.80
2019-05-25T14:32:46.685Z,37.00
2019-05-25T14:35:36.076Z,37.60
2019-05-25T14:38:15.907Z,37.30
2019-05-25T14:41:00.950Z,37.00
2019-05-25T14:43:44.854Z,36.30
2019-05-25T14:46:38.945Z,36.40
2019-05-25T14:49:20.568Z,37.00
2019-05-25T14:52:02.477Z,36.80
2019-05-25T14:54:44.492Z,36.70
2019-05-25T14:57:24.747Z,36.70
2019-05-25T15:00:00.779Z,36.40
2019-05-25T15:02:38.300Z,36.60
2019-05-25T15:05:15.826Z,36.60
2019-05-25T15:07:53.349Z,36.70
2019-05-25T15:10:30.843Z,36.90
2019-05-25T15:13:08.416Z,37.40
2019-05-25T15:15:45.889Z,38.10
2019-05-25T15:18:23.418Z,38.30
2019-05-25T15:21:05.841Z,38.20
2019-05-25T15:23:47.666Z,37.90
2019-05-25T15:26:27.907Z,37.80
2019-05-25T15:29:06.973Z,37.90
2019-05-25T15:31:45.347Z,38.30
2019-05-25T15:34:29.804Z,38.10
2019-05-25T15:37:11.219Z,37.80
2019-05-25T15:39:53.007Z,37.50
2019-05-25T15:42:36.985Z,37.50
2019-05-25T15:45:23.644Z,37.40
2019-05-25T15:48:05.429Z,37.60
2019-05-25T15:50:44.351Z,37.70
2019-05-25T15:53:25.101Z,37.90
2019-05-25T15:56:10.026Z,37.90
2019-05-25T15:58:46.735Z,37.90
2019-05-25T16:01:28.351Z,37.90
2019-05-25T16:04:03.657Z,37.70
2019-05-25T16:06:41.273Z,37.40
2019-05-25T16:09:19.028Z,37.20
2019-05-25T16:11:56.554Z,37.20
2019-05-25T16:14:34.130Z,37.40
2019-05-25T16:17:11.739Z,37.80
2019-05-25T16:19:49.551Z,38.50
2019-05-25T16:22:27.069Z,38.80
2019-05-25T16:25:04.597Z,38.80
2019-05-25T16:27:42.214Z,38.80
2019-05-25T16:30:21.158Z,38.60
2019-05-25T16:33:13.136Z,38.30
2019-05-25T16:35:42.102Z,37.90
2019-05-25T16:38:26.466Z,37.70
2019-05-25T16:41:06.632Z,37.80
2019-05-25T16:43:57.963Z,37.80
2019-05-25T16:46:36.859Z,37.80
2019-05-25T16:49:34.922Z,37.30
2019-05-25T16:52:37.705Z,37.20
2019-05-25T16:55:32.257Z,36.70
2019-05-25T16:58:18.253Z,36.50
2019-05-25T17:01:03.423Z,36.00
2019-05-25T17:03:52.646Z,35.70
2019-05-25T17:06:29.200Z,35.40
2019-05-25T17:09:16.737Z,35.30
2019-05-25T17:11:53.905Z,35.10
2019-05-25T17:14:31.416Z,34.70
2019-05-25T17:17:08.969Z,34.30
2019-05-25T17:19:46.537Z,34.00
2019-05-25T17:22:24.087Z,33.30
2019-05-25T17:25:01.633Z,32.60
2019-05-25T17:27:39.244Z,31.50
2019-05-25T17:30:17.016Z,30.10
2019-05-25T17:33:03.831Z,29.30
2019-05-25T17:35:50.240Z,29.20
2019-05-25T17:38:32.894Z,29.10
2019-05-25T17:41:48.978Z,29.20
2019-05-25T17:44:36.669Z,29.60
2019-05-25T17:47:29.421Z,29.90
2019-05-25T17:50:17.883Z,30.00
2019-05-25T17:53:24.942Z,30.20
2019-05-25T17:56:15.167Z,30.40
2019-05-25T17:59:03.670Z,30.70
2019-05-25T18:01:46.327Z,30.60
2019-05-25T18:04:25.306Z,30.20
2019-05-25T18:07:05.989Z,29.60
2019-05-25T18:09:44.839Z,28.90
2019-05-25T18:12:22.262Z,28.00
2019-05-25T18:14:59.887Z,26.90
2019-05-25T18:17:37.522Z,25.90
2019-05-25T18:20:25.429Z,25.00
2019-05-25T18:23:00.671Z,24.60
2019-05-25T18:25:38.423Z,24.20
2019-05-25T18:28:15.947Z,24.00
2019-05-25T18:30:53.853Z,23.70
2019-05-25T18:33:35.546Z,23.30
2019-05-25T18:36:19.767Z,22.90
2019-05-25T18:38:56.613Z,22.40
2019-05-25T18:41:39.339Z,22.00
2019-05-25T18:44:18.710Z,21.60
2019-05-25T18:46:58.460Z,21.10
2019-05-25T18:49:39.755Z,20.60
2019-05-25T18:52:23.494Z,19.90
2019-05-25T18:55:08.795Z,19.40
2019-05-25T18:57:48.008Z,19.00
2019-05-25T19:00:31.633Z,18.60
2019-05-25T19:03:25.774Z,18.20
2019-05-25T19:05:56.269Z,17.80
2019-05-25T19:08:33.717Z,17.50
2019-05-25T19:11:11.287Z,17.20
2019-05-25T19:13:48.900Z,16.90
2019-05-25T19:16:26.559Z,16.60
2019-05-25T19:19:04.137Z,16.40
2019-05-25T19:21:41.646Z,16.10
2019-05-25T19:24:20.561Z,15.90
2019-05-25T19:26:59.695Z,15.70
2019-05-25T19:29:42.896Z,15.60
2019-05-25T19:32:27.207Z,15.40
2019-05-25T19:35:23.112Z,15.30
2019-05-25T19:38:15.089Z,15.30
2019-05-25T19:41:02.391Z,15.10
2019-05-25T19:43:47.130Z,15.00
2019-05-25T19:46:44.963Z,14.90
2019-05-25T19:49:45.296Z,14.80
2019-05-25T19:52:51.385Z,14.90
2019-05-25T19:55:52.973Z,14.90
2019-05-25T19:58:45.002Z,14.90
2019-05-25T20:01:47.514Z,14.90
2019-05-25T20:04:29.031Z,14.90
2019-05-25T20:07:23.045Z,14.90
2019-05-25T20:10:04.923Z,15.00
2019-05-25T20:12:42.479Z,15.00
2019-05-25T20:15:19.950Z,15.00
2019-05-25T20:17:57.671Z,15.00
2019-05-25T20:20:35.276Z,15.00
2019-05-25T20:23:12.917Z,15.10
2019-05-25T20:25:50.508Z,15.10
2019-05-25T20:28:33.218Z,15.10
2019-05-25T20:31:13.980Z,15.00
2019-05-25T20:34:01.136Z,14.90
2019-05-25T20:36:49.044Z,14.80
2019-05-25T20:39:26.733Z,14.70
2019-05-25T20:42:16.324Z,14.60
2019-05-25T20:45:12.090Z,14.50
2019-05-25T20:51:06.714Z,14.30
2019-05-25T20:53:41.319Z,14.10
2019-05-25T20:56:29.922Z,14.00
2019-05-25T20:59:13.105Z,14.00
2019-05-25T21:01:58.719Z,13.80
2019-05-25T21:04:37.718Z,13.80
2019-05-25T21:07:27.986Z,13.70
2019-05-25T21:10:04.954Z,13.60
2019-05-25T21:12:42.418Z,13.50
2019-05-25T21:15:19.965Z,13.50
2019-05-25T21:17:57.544Z,13.40
2019-05-25T21:20:35.109Z,13.40
2019-05-25T21:23:12.680Z,13.40
2019-05-25T21:25:58.567Z,13.50
2019-05-25T21:28:49.946Z,13.50
2019-05-25T21:31:49.254Z,13.60
2019-05-25T21:35:00.355Z,13.70
2019-05-25T21:41:07.020Z,13.90
2019-05-25T21:44:00.084Z,13.90
2019-05-25T21:46:52.102Z,14.00
2019-05-25T21:50:15.110Z,14.10
2019-05-25T21:53:11.172Z,14.10
2019-05-25T21:59:26.539Z,14.00
2019-05-25T22:02:18.061Z,13.90
2019-05-25T22:05:00.636Z,13.90
2019-05-25T22:07:59.613Z,13.90
2019-05-25T22:10:35.738Z,13.80
2019-05-25T22:13:26.990Z,13.80
2019-05-25T22:15:50.924Z,13.80
2019-05-25T22:18:28.636Z,13.80
2019-05-25T22:21:06.184Z,13.60
2019-05-25T22:23:46.698Z,13.50
2019-05-25T22:26:28.709Z,13.40
2019-05-25T22:29:15.970Z,13.30
2019-05-25T22:31:59.504Z,13.10
2019-05-25T22:34:37.496Z,12.90
2019-05-25T22:37:34.248Z,12.70
2019-05-25T22:40:19.035Z,12.60
2019-05-25T22:43:21.323Z,12.50
2019-05-25T22:46:20.412Z,12.40
2019-05-25T22:49:01.592Z,12.30
2019-05-25T22:51:52.400Z,12.30
2019-05-25T22:54:46.525Z,12.20
2019-05-25T22:57:28.597Z,12.00
2019-05-25T23:00:10.376Z,11.90
2019-05-25T23:02:46.024Z,11.70
2019-05-25T23:05:23.546Z,11.60
2019-05-25T23:08:01.088Z,11.50
2019-05-25T23:10:38.635Z,11.50
2019-05-25T23:13:16.143Z,11.40
2019-05-25T23:15:53.791Z,11.30
2019-05-25T23:18:31.345Z,11.30
2019-05-25T23:21:08.878Z,11.30
2019-05-25T23:23:46.565Z,11.30
2019-05-25T23:26:24.283Z,11.20
2019-05-25T23:29:01.901Z,11.10
2019-05-25T23:31:42.713Z,11.00
2019-05-25T23:34:32.869Z,10.90
2019-05-25T23:37:22.565Z,10.80
2019-05-25T23:40:11.498Z,10.60
2019-05-25T23:43:19.235Z,10.60
2019-05-25T23:46:34.296Z,10.50
2019-05-25T23:49:30.461Z,10.40
2019-05-25T23:52:49.892Z,10.30
2019-05-25T23:55:08.212Z,10.30
2019-05-25T23:58:21.745Z,10.20
